createdAt,value
2022-12-06T00:02:28.930Z,69.57
2022-12-06T00:05:33.263Z,62.33
2022-12-06T00:08:37.149Z,61.95
2022-12-06T00:11:41.778Z,60.95
2022-12-06T00:14:45.306Z,87.05
2022-12-06T00:17:48.955Z,62.80
2022-12-06T00:20:52.315Z,63.38
2022-12-06T00:23:58.156Z,55.22
2022-12-06T00:27:03.053Z,62.65
2022-12-06T00:30:07.861Z,60.78
2022-12-06T00:33:11.278Z,64.35
2022-12-06T00:36:16.969Z,60.30
2022-12-06T00:39:20.579Z,60.35
2022-12-06T00:42:25.262Z,62.67
2022-12-06T00:45:28.467Z,56.45
2022-12-06T00:48:32.016Z,66.35
2022-12-06T00:51:36.503Z,67.18
2022-12-06T00:54:39.896Z,64.50
2022-12-06T00:57:44.686Z,59.63
2022-12-06T01:00:48.168Z,58.42
2022-12-06T01:03:53.895Z,59.45
2022-12-06T01:06:57.155Z,61.97
2022-12-06T01:10:01.440Z,62.45
2022-12-06T01:13:07.557Z,58.30
2022-12-06T01:16:14.521Z,58.78
2022-12-06T01:19:17.785Z,59.53
2022-12-06T01:22:21.202Z,65.00
2022-12-06T01:25:26.347Z,61.78
2022-12-06T01:28:31.801Z,59.15
2022-12-06T01:31:38.788Z,61.30
2022-12-06T01:34:43.505Z,59.50
2022-12-06T01:37:46.778Z,57.60
2022-12-06T01:40:50.219Z,58.33
2022-12-06T01:43:55.431Z,58.33
2022-12-06T01:46:58.722Z,64.18
2022-12-06T01:50:05.159Z,62.88
2022-12-06T01:53:12.845Z,61.33
2022-12-06T01:56:16.619Z,61.55
2022-12-06T01:59:22.365Z,64.38
2022-12-06T02:02:25.626Z,56.53
2022-12-06T02:05:33.009Z,58.35
2022-12-06T02:08:40.731Z,60.40
2022-12-06T02:11:44.044Z,65.47
2022-12-06T02:14:53.062Z,61.75
2022-12-06T02:18:04.982Z,70.43
2022-12-06T02:21:17.560Z,59.75
2022-12-06T02:25:06.396Z,71.88
2022-12-06T02:28:34.193Z,68.57
2022-12-06T02:31:43.914Z,62.25
2022-12-06T02:34:54.577Z,66.43
2022-12-06T02:38:06.640Z,64.68
2022-12-06T02:41:17.324Z,65.05
2022-12-06T02:44:26.165Z,73.95
2022-12-06T02:47:34.840Z,67.15
2022-12-06T02:50:42.149Z,63.95
2022-12-06T02:53:50.123Z,69.10
2022-12-06T02:56:53.260Z,68.95
2022-12-06T02:59:56.463Z,66.45
2022-12-06T03:03:09.121Z,69.95
2022-12-06T03:06:46.508Z,68.85
2022-12-06T03:10:00.252Z,66.05
2022-12-06T03:13:14.252Z,70.53
2022-12-06T03:16:22.861Z,71.78
2022-12-06T03:19:29.852Z,66.15
2022-12-06T03:22:39.758Z,70.72
2022-12-06T03:25:46.054Z,67.47
2022-12-06T03:28:51.792Z,72.90
2022-12-06T03:31:55.969Z,73.00
2022-12-06T03:35:04.963Z,75.18
2022-12-06T03:38:12.401Z,75.00
2022-12-06T03:41:17.525Z,77.45
2022-12-06T03:44:21.460Z,73.15
2022-12-06T03:47:32.274Z,73.47
2022-12-06T03:50:42.178Z,72.93
2022-12-06T03:53:49.909Z,78.47
2022-12-06T03:56:53.147Z,73.07
2022-12-06T03:59:56.355Z,74.95
2022-12-06T04:02:59.607Z,76.50
2022-12-06T04:06:04.842Z,77.63
2022-12-06T04:09:25.713Z,77.97
2022-12-06T04:12:46.743Z,77.50
2022-12-06T04:15:50.217Z,77.78
2022-12-06T04:18:52.519Z,83.85
2022-12-06T04:22:14.407Z,74.50
2022-12-06T04:25:18.051Z,73.00
2022-12-06T04:28:38.521Z,73.10
2022-12-06T04:32:00.094Z,76.07
2022-12-06T04:35:20.646Z,79.63
2022-12-06T04:38:43.582Z,84.20
2022-12-06T04:42:04.112Z,83.40
2022-12-06T04:45:08.705Z,74.38
2022-12-06T04:48:15.089Z,83.72
2022-12-06T04:51:18.459Z,79.80
2022-12-06T04:54:23.915Z,81.85
2022-12-06T04:57:30.355Z,78.50
2022-12-06T05:00:33.953Z,84.88
2022-12-06T05:03:43.796Z,87.20
2022-12-06T05:06:47.339Z,87.05
2022-12-06T05:09:51.867Z,80.20
2022-12-06T05:12:55.179Z,79.45
2022-12-06T05:16:00.718Z,78.00
2022-12-06T05:19:04.302Z,78.38
2022-12-06T05:22:07.603Z,78.45
2022-12-06T05:25:12.664Z,75.38
2022-12-06T05:28:15.839Z,77.85
2022-12-06T05:31:19.545Z,71.65
2022-12-06T05:34:22.784Z,69.85
2022-12-06T05:37:25.940Z,74.90
2022-12-06T05:40:30.523Z,67.53
2022-12-06T05:43:34.315Z,72.15
2022-12-06T05:46:37.505Z,74.72
2022-12-06T05:49:40.885Z,71.30
2022-12-06T05:52:44.068Z,73.32
2022-12-06T05:55:49.339Z,74.25
2022-12-06T05:58:52.720Z,77.93
2022-12-06T06:01:56.249Z,71.13
2022-12-06T06:04:59.916Z,71.53
2022-12-06T06:08:03.172Z,75.22
2022-12-06T06:11:08.056Z,72.32
2022-12-06T06:14:11.263Z,71.90
2022-12-06T06:17:14.672Z,65.68
2022-12-06T06:20:17.870Z,70.32
2022-12-06T06:23:25.722Z,64.75
2022-12-06T06:26:30.764Z,66.43
2022-12-06T06:29:34.074Z,70.68
2022-12-06T06:32:38.051Z,67.78
2022-12-06T06:35:42.111Z,66.72
2022-12-06T06:38:45.374Z,67.43
2022-12-06T06:41:49.972Z,74.78
2022-12-06T06:44:54.547Z,74.78
2022-12-06T06:47:57.754Z,76.72
2022-12-06T06:51:04.492Z,69.72
2022-12-06T06:54:07.724Z,69.05
2022-12-06T06:57:17.348Z,69.32
2022-12-06T07:00:21.322Z,71.07
2022-12-06T07:03:25.610Z,70.13
2022-12-06T07:06:29.193Z,75.70
2022-12-06T07:09:32.546Z,87.03
2022-12-06T07:12:37.425Z,77.03
2022-12-06T07:15:40.619Z,81.95
2022-12-06T07:18:44.391Z,72.43
2022-12-06T07:21:47.581Z,74.93
2022-12-06T07:24:52.505Z,72.97
2022-12-06T07:27:57.268Z,77.50
2022-12-06T07:31:08.344Z,70.70
2022-12-06T07:34:11.798Z,68.55
2022-12-06T07:37:15.129Z,75.70
2022-12-06T07:40:30.654Z,67.80
2022-12-06T07:44:01.375Z,69.43
2022-12-06T07:47:06.024Z,70.78
2022-12-06T07:50:17.640Z,75.70
2022-12-06T07:53:21.565Z,71.72
2022-12-06T07:56:24.929Z,64.40
2022-12-06T07:59:29.592Z,73.25
2022-12-06T08:02:33.024Z,67.85
2022-12-06T08:05:36.764Z,72.45
2022-12-06T08:08:40.580Z,68.40
2022-12-06T08:11:43.860Z,70.95
2022-12-06T08:14:48.491Z,69.80
2022-12-06T08:17:52.170Z,73.20
2022-12-06T08:20:55.388Z,67.80
2022-12-06T08:23:58.599Z,72.88
2022-12-06T08:27:01.824Z,68.25
2022-12-06T08:30:09.043Z,64.75
2022-12-06T08:33:12.232Z,59.95
2022-12-06T08:36:17.959Z,62.17
2022-12-06T08:39:26.437Z,67.80
2022-12-06T08:42:30.076Z,59.65
2022-12-06T08:45:37.637Z,54.53
2022-12-06T08:48:47.001Z,59.00
2022-12-06T08:51:50.936Z,56.60
2022-12-06T08:54:55.724Z,56.42
2022-12-06T08:57:59.634Z,54.35
2022-12-06T09:01:11.583Z,55.92
2022-12-06T09:04:15.370Z,58.33
2022-12-06T09:07:18.919Z,54.15
2022-12-06T09:10:22.397Z,61.47
2022-12-06T09:13:25.611Z,57.58
2022-12-06T09:16:30.493Z,62.08
2022-12-06T09:19:36.144Z,65.07
2022-12-06T09:22:39.938Z,60.13
2022-12-06T09:25:43.493Z,65.07
2022-12-06T09:28:50.719Z,57.95
2022-12-06T09:31:55.433Z,59.42
2022-12-06T09:34:58.618Z,63.75
2022-12-06T09:38:03.566Z,58.67
2022-12-06T09:41:18.810Z,65.05
2022-12-06T09:44:47.901Z,63.10
2022-12-06T09:48:21.536Z,62.65
2022-12-06T09:51:53.319Z,65.45
2022-12-06T09:55:10.343Z,65.80
2022-12-06T09:58:27.295Z,67.28
2022-12-06T10:01:40.718Z,60.88
2022-12-06T10:05:06.047Z,75.53
2022-12-06T10:08:25.826Z,91.85
2022-12-06T10:11:55.870Z,72.38
2022-12-06T10:15:12.948Z,66.32
2022-12-06T10:18:29.081Z,66.03
2022-12-06T10:21:46.587Z,59.72
2022-12-06T10:24:58.910Z,67.20
2022-12-06T10:28:11.674Z,62.10
2022-12-06T10:31:23.026Z,66.18
2022-12-06T10:34:49.817Z,61.65
2022-12-06T10:38:06.426Z,56.10
2022-12-06T10:41:18.667Z,55.10
2022-12-06T10:44:27.516Z,62.95
2022-12-06T10:47:45.283Z,61.65
2022-12-06T10:50:56.307Z,60.33
2022-12-06T10:54:05.914Z,60.70
2022-12-06T10:57:16.822Z,54.33
2022-12-06T11:00:22.226Z,59.25
2022-12-06T11:03:30.191Z,52.42
2022-12-06T11:06:38.089Z,60.13
2022-12-06T11:09:44.346Z,59.22
2022-12-06T11:12:49.595Z,64.00
2022-12-06T11:15:58.816Z,56.15
2022-12-06T11:19:16.784Z,58.50
2022-12-06T11:22:32.630Z,57.47
2022-12-06T11:25:50.254Z,71.43
2022-12-06T11:29:04.195Z,54.40
2022-12-06T11:32:09.222Z,52.00
2022-12-06T11:35:16.903Z,54.72
2022-12-06T11:38:20.185Z,62.30
2022-12-06T11:41:28.829Z,60.80
2022-12-06T11:44:42.491Z,64.53
2022-12-06T11:47:49.828Z,56.70
2022-12-06T11:50:54.296Z,58.08
2022-12-06T11:54:06.669Z,62.28
2022-12-06T11:57:22.852Z,63.83
2022-12-06T12:00:27.468Z,52.03
2022-12-06T12:03:32.581Z,51.80
2022-12-06T12:06:38.138Z,52.13
2022-12-06T12:09:54.471Z,58.85
2022-12-06T12:13:37.204Z,66.28
2022-12-06T12:16:48.331Z,63.05
2022-12-06T12:19:53.740Z,60.92
2022-12-06T12:23:01.710Z,51.30
2022-12-06T12:26:12.555Z,61.00
2022-12-06T12:29:19.789Z,60.78
2022-12-06T12:32:23.186Z,55.13
2022-12-06T12:35:28.420Z,52.67
2022-12-06T12:38:39.473Z,51.35
2022-12-06T12:41:45.217Z,53.92
2022-12-06T12:44:50.287Z,56.10
2022-12-06T12:48:01.306Z,56.35
2022-12-06T12:51:07.317Z,57.75
2022-12-06T12:54:23.056Z,60.00
2022-12-06T12:57:27.023Z,58.75
2022-12-06T13:00:36.321Z,64.15
2022-12-06T13:03:51.248Z,66.57
2022-12-06T13:06:59.517Z,69.38
2022-12-06T13:10:05.939Z,61.10
2022-12-06T13:13:16.593Z,62.65
2022-12-06T13:16:26.398Z,70.18
2022-12-06T13:19:34.738Z,52.10
2022-12-06T13:22:45.167Z,69.10
2022-12-06T13:25:51.927Z,67.78
2022-12-06T13:28:58.905Z,64.90
2022-12-06T13:32:14.867Z,66.68
2022-12-06T13:35:29.470Z,68.35
2022-12-06T13:38:35.412Z,67.82
2022-12-06T13:42:13.631Z,58.33
2022-12-06T13:45:41.377Z,52.88
2022-12-06T13:48:56.087Z,66.03
2022-12-06T13:51:59.967Z,67.57
2022-12-06T13:55:57.541Z,67.85
2022-12-06T13:59:06.186Z,61.08
2022-12-06T14:02:52.402Z,51.00
2022-12-06T14:06:07.497Z,58.05
2022-12-06T14:09:16.337Z,57.78
2022-12-06T14:12:21.490Z,59.90
2022-12-06T14:15:24.821Z,59.00
2022-12-06T14:18:29.842Z,59.13
2022-12-06T14:21:39.755Z,57.40
2022-12-06T14:24:55.263Z,61.40
2022-12-06T14:28:05.421Z,64.82
2022-12-06T14:31:18.593Z,68.72
2022-12-06T14:34:29.908Z,60.45
2022-12-06T14:37:34.886Z,61.00
2022-12-06T14:40:54.521Z,65.00
2022-12-06T14:43:58.144Z,54.67
2022-12-06T14:47:01.579Z,60.22
2022-12-06T14:50:25.851Z,64.82
2022-12-06T14:53:32.898Z,61.15
2022-12-06T14:56:37.207Z,65.53
2022-12-06T15:00:13.966Z,52.85
2022-12-06T15:03:29.565Z,56.00
2022-12-06T15:06:34.771Z,58.65
2022-12-06T15:09:47.004Z,55.05
2022-12-06T15:12:57.950Z,65.38
2022-12-06T15:16:07.407Z,64.50
2022-12-06T15:19:13.837Z,52.60
2022-12-06T15:22:24.818Z,59.72
2022-12-06T15:25:30.359Z,60.72
2022-12-06T15:28:35.765Z,65.53
2022-12-06T15:31:39.261Z,69.22
2022-12-06T15:34:44.147Z,68.80
2022-12-06T15:37:50.535Z,195.82
2022-12-06T15:40:56.747Z,182.77
2022-12-06T15:44:00.145Z,82.97
2022-12-06T15:47:03.348Z,842.47
2022-12-06T15:50:08.044Z,986.58
2022-12-06T15:53:14.388Z,136.48
2022-12-06T15:56:22.613Z,185.10
2022-12-06T15:59:25.943Z,764.28
2022-12-06T16:02:29.238Z,911.70
2022-12-06T16:05:32.605Z,398.10
2022-12-06T16:08:35.885Z,1619.68
2022-12-06T16:11:40.981Z,456.10
2022-12-06T16:14:44.255Z,184.70
2022-12-06T16:17:47.752Z,99.97
2022-12-06T16:20:51.490Z,296.65
2022-12-06T16:24:13.121Z,156.15
2022-12-06T16:27:18.716Z,153.25
2022-12-06T16:30:33.919Z,125.82
2022-12-06T16:33:37.312Z,126.28
2022-12-06T16:36:58.346Z,154.75
2022-12-06T16:40:01.844Z,98.43
2022-12-06T16:43:06.683Z,91.45
2022-12-06T16:46:23.056Z,165.15
2022-12-06T16:52:52.826Z,179.05
2022-12-06T16:55:56.040Z,120.40
2022-12-06T16:59:01.348Z,96.68
2022-12-06T17:02:11.621Z,188.73
2022-12-06T17:05:19.955Z,283.95
2022-12-06T17:08:23.374Z,123.30
2022-12-06T17:11:46.040Z,106.38
2022-12-06T17:14:50.915Z,102.95
2022-12-06T17:17:54.152Z,183.00
2022-12-06T17:20:57.452Z,193.60
2022-12-06T17:24:01.647Z,123.47
2022-12-06T17:27:05.409Z,104.28
2022-12-06T17:30:17.770Z,108.20
2022-12-06T17:33:21.276Z,137.05
2022-12-06T17:36:25.667Z,213.85
2022-12-06T17:39:28.941Z,280.08
2022-12-06T17:42:49.805Z,149.40
2022-12-06T17:45:54.389Z,123.63
2022-12-06T17:48:58.126Z,326.02
2022-12-06T17:52:01.500Z,1061.35
2022-12-06T17:55:10.927Z,288.63
2022-12-06T17:58:14.157Z,96.57
2022-12-06T18:01:20.000Z,110.88
2022-12-06T18:04:23.474Z,299.70
2022-12-06T18:07:27.278Z,508.48
2022-12-06T18:10:31.051Z,135.45
2022-12-06T18:13:34.414Z,97.45
2022-12-06T18:16:40.286Z,99.65
2022-12-06T18:19:47.038Z,104.53
2022-12-06T18:22:50.289Z,92.28
2022-12-06T18:25:53.492Z,90.07
2022-12-06T18:28:58.993Z,92.25
2022-12-06T18:32:05.092Z,90.88
2022-12-06T18:35:08.960Z,88.93
2022-12-06T18:38:12.140Z,92.30
2022-12-06T18:41:17.908Z,88.82
2022-12-06T18:44:21.939Z,108.53
2022-12-06T18:47:26.958Z,116.80
2022-12-06T18:50:30.442Z,104.45
2022-12-06T18:53:34.044Z,110.00
2022-12-06T18:56:37.680Z,111.10
2022-12-06T18:59:41.077Z,109.65
2022-12-06T19:02:45.839Z,130.50
2022-12-06T19:06:03.883Z,124.65
2022-12-06T19:09:09.882Z,207.88
2022-12-06T19:12:13.364Z,114.82
2022-12-06T19:15:16.896Z,112.38
2022-12-06T19:18:21.948Z,98.72
2022-12-06T19:21:26.112Z,113.10
2022-12-06T19:24:29.914Z,144.30
2022-12-06T19:27:34.532Z,153.00
2022-12-06T19:30:38.288Z,206.57
2022-12-06T19:33:44.866Z,117.88
2022-12-06T19:36:49.514Z,143.10
2022-12-06T19:39:52.852Z,144.48
2022-12-06T19:43:13.543Z,182.50
2022-12-06T19:46:21.927Z,120.75
2022-12-06T19:49:27.817Z,119.43
2022-12-06T19:52:31.558Z,167.63
2022-12-06T19:55:34.903Z,127.75
2022-12-06T19:58:40.331Z,108.80
2022-12-06T20:06:35.144Z,126.68
2022-12-06T20:09:39.369Z,153.80
2022-12-06T20:12:42.962Z,133.82
2022-12-06T20:15:46.373Z,119.53
2022-12-06T20:18:49.769Z,126.82
2022-12-06T20:21:54.995Z,127.88
2022-12-06T20:24:59.939Z,114.05
2022-12-06T20:28:13.161Z,96.43
2022-12-06T20:31:21.254Z,113.45
2022-12-06T20:34:26.297Z,1001.55
2022-12-06T20:37:31.545Z,1315.25
2022-12-06T20:40:36.048Z,801.22
2022-12-06T20:43:39.847Z,1024.47
2022-12-06T20:46:43.420Z,942.03
2022-12-06T20:49:46.976Z,441.98
2022-12-06T20:52:52.080Z,609.85
2022-12-06T20:55:55.272Z,290.67
2022-12-06T20:59:00.006Z,370.10
2022-12-06T21:02:03.644Z,557.42
2022-12-06T21:05:08.116Z,614.47
2022-12-06T21:08:13.044Z,929.65
2022-12-06T21:11:24.306Z,647.33
2022-12-06T21:14:27.794Z,533.17
2022-12-06T21:17:33.920Z,442.08
2022-12-06T21:20:38.840Z,347.60
2022-12-06T21:23:45.352Z,243.75
2022-12-06T21:26:48.782Z,229.77
2022-12-06T21:29:52.182Z,172.65
2022-12-06T21:32:56.062Z,184.85
2022-12-06T21:36:03.501Z,182.98
2022-12-06T21:39:08.735Z,184.65
2022-12-06T21:42:15.453Z,168.60
2022-12-06T21:45:19.967Z,155.15
2022-12-06T21:48:23.243Z,171.35
2022-12-06T21:51:28.773Z,166.43
2022-12-06T21:54:33.449Z,152.13
2022-12-06T21:57:39.803Z,150.60
2022-12-06T22:00:43.245Z,166.32
2022-12-06T22:03:51.851Z,132.85
2022-12-06T22:06:55.610Z,152.50
2022-12-06T22:10:00.821Z,144.77
2022-12-06T22:13:04.397Z,146.90
2022-12-06T22:16:09.856Z,140.50
2022-12-06T22:19:13.433Z,139.90
2022-12-06T22:22:16.695Z,140.73
2022-12-06T22:25:21.424Z,148.65
2022-12-06T22:28:25.225Z,143.98
2022-12-06T22:31:30.289Z,139.50
2022-12-06T22:34:34.028Z,165.73
2022-12-06T22:37:37.207Z,148.13
2022-12-06T22:40:41.783Z,157.82
2022-12-06T22:43:45.219Z,164.27
2022-12-06T22:46:48.542Z,135.43
2022-12-06T22:49:51.812Z,138.38
2022-12-06T22:52:55.181Z,127.78
2022-12-06T22:56:02.119Z,110.25
2022-12-06T22:59:06.013Z,102.03
2022-12-06T23:02:09.278Z,93.82
2022-12-06T23:05:12.664Z,97.57
2022-12-06T23:08:15.976Z,87.88
2022-12-06T23:11:22.512Z,89.50
2022-12-06T23:14:26.263Z,92.75
2022-12-06T23:17:30.294Z,91.25
2022-12-06T23:20:33.424Z,94.07
2022-12-06T23:23:37.320Z,93.07
2022-12-06T23:26:44.338Z,97.50
2022-12-06T23:29:47.510Z,104.55
2022-12-06T23:32:50.690Z,105.10
2022-12-06T23:36:02.988Z,103.63
2022-12-06T23:39:07.327Z,111.22
2022-12-06T23:42:11.844Z,116.90
2022-12-06T23:45:15.222Z,114.65
2022-12-06T23:48:18.679Z,117.90
2022-12-06T23:51:27.269Z,119.05
2022-12-06T23:54:30.534Z,120.07
2022-12-06T23:57:35.303Z,114.95
